createdAt,value
2018-04-01T00:00:10.997Z,1013.53
2018-04-01T00:01:10.984Z,1013.53
2018-04-01T00:02:10.973Z,1013.53
2018-04-01T00:03:10.959Z,1013.59
2018-04-01T00:04:10.946Z,1013.59
2018-04-01T00:05:10.932Z,1013.6
2018-04-01T00:06:10.920Z,1013.58
2018-04-01T00:07:10.907Z,1013.61
2018-04-01T00:08:10.895Z,1013.62
2018-04-01T00:09:10.881Z,1013.58
2018-04-01T00:10:10.868Z,1013.65
2018-04-01T00:11:10.855Z,1013.58
2018-04-01T00:12:10.847Z,1013.61
2018-04-01T00:13:10.828Z,1013.65
2018-04-01T00:14:10.817Z,1013.64
2018-04-01T00:15:10.804Z,1013.66
2018-04-01T00:16:10.793Z,1013.65
2018-04-01T00:17:10.778Z,1013.65
2018-04-01T00:18:10.764Z,1013.63
2018-04-01T00:19:10.752Z,1013.67
2018-04-01T00:20:10.738Z,1013.64
2018-04-01T00:21:10.726Z,1013.66
2018-04-01T00:22:10.713Z,1013.66
2018-04-01T00:23:10.700Z,1013.75
2018-04-01T00:24:10.686Z,1013.69
2018-04-01T00:25:10.673Z,1013.74
2018-04-01T00:26:10.673Z,1013.75
2018-04-01T00:27:10.648Z,1013.77
2018-04-01T00:28:10.635Z,1013.82
2018-04-01T00:29:10.621Z,1013.82
2018-04-01T00:30:10.609Z,1013.88
2018-04-01T00:31:10.596Z,1013.85
2018-04-01T00:32:10.588Z,1013.85
2018-04-01T00:33:10.570Z,1013.86
2018-04-01T00:34:10.557Z,1013.86
2018-04-01T00:35:10.544Z,1013.87
2018-04-01T00:36:10.531Z,1013.91
2018-04-01T00:37:10.518Z,1013.82
2018-04-01T00:38:10.509Z,1013.91
2018-04-01T00:39:10.492Z,1013.85
2018-04-01T00:40:10.480Z,1013.86
2018-04-01T00:41:10.467Z,1013.89
2018-04-01T00:42:10.453Z,1013.9
2018-04-01T00:43:10.440Z,1013.93
2018-04-01T00:44:10.443Z,1013.86
2018-04-01T00:45:10.413Z,1013.89
2018-04-01T00:46:10.400Z,1013.9
2018-04-01T00:47:10.388Z,1013.87
2018-04-01T00:48:10.376Z,1013.83
2018-04-01T00:49:10.361Z,1013.79
2018-04-01T00:50:10.352Z,1013.77
2018-04-01T00:51:10.337Z,1013.8
2018-04-01T00:52:10.323Z,1013.74
2018-04-01T00:53:10.309Z,1013.73
2018-04-01T00:54:10.296Z,1013.71
2018-04-01T00:55:10.285Z,1013.73
2018-04-01T00:56:10.275Z,1013.73
2018-04-01T00:57:10.261Z,1013.68
2018-04-01T00:58:10.249Z,1013.71
2018-04-01T00:59:10.231Z,1013.71
2018-04-01T01:00:10.218Z,1013.74
2018-04-01T01:01:10.204Z,1013.74
2018-04-01T01:02:10.223Z,1013.73
2018-04-01T01:03:10.202Z,1013.77
2018-04-01T01:04:10.173Z,1013.75
2018-04-01T01:05:10.152Z,1013.77
2018-04-01T01:06:10.139Z,1013.8
2018-04-01T01:07:10.125Z,1013.79
2018-04-01T01:08:10.112Z,1013.83
2018-04-01T01:09:10.100Z,1013.76
2018-04-01T01:10:10.087Z,1013.81
2018-04-01T01:11:10.074Z,1013.85
2018-04-01T01:12:10.060Z,1013.83
2018-04-01T01:13:10.048Z,1013.86
2018-04-01T01:14:10.035Z,1013.9
2018-04-01T01:15:10.022Z,1013.88
2018-04-01T01:16:10.009Z,1013.89
2018-04-01T01:17:09.998Z,1013.9
2018-04-01T01:18:09.983Z,1013.9
2018-04-01T01:19:09.970Z,1013.89
2018-04-01T01:20:09.957Z,1013.89
2018-04-01T01:21:09.944Z,1013.87
2018-04-01T01:22:09.930Z,1013.86
2018-04-01T01:23:09.921Z,1013.84
2018-04-01T01:24:09.904Z,1013.82
2018-04-01T01:25:09.891Z,1013.85
2018-04-01T01:26:09.883Z,1013.87
2018-04-01T01:27:09.864Z,1013.91
2018-04-01T01:28:09.852Z,1013.9
2018-04-01T01:29:09.837Z,1013.87
2018-04-01T01:30:09.828Z,1013.88
2018-04-01T01:31:09.813Z,1013.9
2018-04-01T01:32:09.800Z,1013.88
2018-04-01T01:33:09.785Z,1013.86
2018-04-01T01:34:09.778Z,1013.85
2018-04-01T01:35:09.760Z,1013.83
2018-04-01T01:36:09.748Z,1013.8
2018-04-01T01:37:09.734Z,1013.83
2018-04-01T01:38:09.720Z,1013.82
2018-04-01T01:39:09.707Z,1013.79
2018-04-01T01:40:09.697Z,1013.8
2018-04-01T01:41:09.682Z,1013.8
2018-04-01T01:42:09.668Z,1013.8
2018-04-01T01:43:09.656Z,1013.82
2018-04-01T01:44:09.641Z,1013.82
2018-04-01T01:45:09.628Z,1013.78
2018-04-01T01:46:09.615Z,1013.8
2018-04-01T01:47:09.601Z,1013.9
2018-04-01T01:48:09.588Z,1013.85
2018-04-01T01:49:09.576Z,1013.85
2018-04-01T01:50:09.563Z,1013.8
2018-04-01T01:51:09.550Z,1013.79
2018-04-01T01:52:09.536Z,1013.87
2018-04-01T01:53:09.523Z,1013.81
2018-04-01T01:54:09.509Z,1013.83
2018-04-01T01:55:09.500Z,1013.79
2018-04-01T01:56:09.484Z,1013.85
2018-04-01T01:57:09.470Z,1013.8
2018-04-01T01:58:09.458Z,1013.8
2018-04-01T01:59:09.443Z,1013.76
2018-04-01T02:00:09.433Z,1013.78
2018-04-01T02:01:09.420Z,1013.8
2018-04-01T02:02:09.404Z,1013.82
2018-04-01T02:03:09.391Z,1013.68
2018-04-01T02:04:09.380Z,1013.83
2018-04-01T02:05:09.365Z,1013.83
2018-04-01T02:06:09.351Z,1013.78
2018-04-01T02:07:09.338Z,1013.78
2018-04-01T02:08:09.325Z,1013.79
2018-04-01T02:09:09.312Z,1013.88
2018-04-01T02:10:09.300Z,1013.82
2018-04-01T02:11:09.286Z,1013.85
2018-04-01T02:12:09.272Z,1013.84
2018-04-01T02:13:09.259Z,1013.84
2018-04-01T02:14:09.246Z,1013.82
2018-04-01T02:15:09.239Z,1013.83
2018-04-01T02:16:09.219Z,1013.85
2018-04-01T02:17:09.206Z,1013.82
2018-04-01T02:18:09.193Z,1013.77
2018-04-01T02:19:09.179Z,1013.77
2018-04-01T02:20:09.166Z,1013.84
2018-04-01T02:21:09.153Z,1013.84
2018-04-01T02:22:09.140Z,1013.83
2018-04-01T02:23:09.128Z,1013.84
2018-04-01T02:24:09.113Z,1013.84
2018-04-01T02:25:09.100Z,1013.85
2018-04-01T02:26:09.088Z,1013.85
2018-04-01T02:27:09.074Z,1013.84
2018-04-01T02:28:09.061Z,1013.91
2018-04-01T02:29:09.048Z,1013.87
2018-04-01T02:30:09.035Z,1013.99
2018-04-01T02:31:09.021Z,1013.92
2018-04-01T02:32:09.009Z,1014
2018-04-01T02:33:08.996Z,1013.95
2018-04-01T02:34:08.982Z,1013.96
2018-04-01T02:35:08.968Z,1013.95
2018-04-01T02:36:08.955Z,1013.95
2018-04-01T02:37:08.941Z,1013.89
2018-04-01T02:38:08.929Z,1013.94
2018-04-01T02:39:08.914Z,1013.94
2018-04-01T02:40:08.904Z,1013.89
2018-04-01T02:41:08.893Z,1013.89
2018-04-01T02:42:08.876Z,1013.86
2018-04-01T02:43:08.861Z,1013.88
2018-04-01T02:44:08.848Z,1013.85
2018-04-01T02:45:08.835Z,1013.88
2018-04-01T02:46:08.821Z,1013.89
2018-04-01T02:47:08.807Z,1013.85
2018-04-01T02:48:08.796Z,1013.85
2018-04-01T02:49:08.783Z,1013.86
2018-04-01T02:50:08.769Z,1013.87
2018-04-01T02:51:08.757Z,1013.82
2018-04-01T02:52:08.742Z,1013.76
2018-04-01T02:53:08.729Z,1013.74
2018-04-01T02:54:08.716Z,1013.71
2018-04-01T02:55:08.707Z,1013.74
2018-04-01T02:56:08.699Z,1013.76
2018-04-01T02:57:08.682Z,1013.78
2018-04-01T02:58:08.668Z,1013.75
2018-04-01T02:59:08.651Z,1013.76
2018-04-01T03:00:08.636Z,1013.79
2018-04-01T03:01:08.625Z,1013.79
2018-04-01T03:02:08.614Z,1013.81
2018-04-01T03:03:08.598Z,1013.83
2018-04-01T03:04:08.584Z,1013.85
2018-04-01T03:05:08.571Z,1013.84
2018-04-01T03:06:08.557Z,1013.87
2018-04-01T03:07:08.544Z,1013.84
2018-04-01T03:08:08.530Z,1013.82
2018-04-01T03:09:08.518Z,1013.85
2018-04-01T03:10:08.503Z,1013.84
2018-04-01T03:11:08.546Z,1013.85
2018-04-01T03:12:08.481Z,1013.9
2018-04-01T03:13:08.463Z,1013.86
2018-04-01T03:14:08.450Z,1013.91
2018-04-01T03:15:08.436Z,1013.87
2018-04-01T03:16:08.423Z,1013.85
2018-04-01T03:17:08.411Z,1013.77
2018-04-01T03:18:08.397Z,1013.83
2018-04-01T03:19:08.383Z,1013.78
2018-04-01T03:20:08.371Z,1013.86
2018-04-01T03:21:08.363Z,1013.85
2018-04-01T03:22:08.344Z,1013.85
2018-04-01T03:23:08.330Z,1013.87
2018-04-01T03:24:08.319Z,1013.84
2018-04-01T03:25:08.304Z,1013.87
2018-04-01T03:26:08.290Z,1013.83
2018-04-01T03:27:08.277Z,1013.79
2018-04-01T03:28:08.264Z,1013.84
2018-04-01T03:29:08.251Z,1013.84
2018-04-01T03:30:08.238Z,1013.81
2018-04-01T03:31:08.225Z,1013.76
2018-04-01T03:32:08.211Z,1013.8
2018-04-01T03:33:08.196Z,1013.81
2018-04-01T03:34:08.183Z,1013.8
2018-04-01T03:35:08.172Z,1013.79
2018-04-01T03:36:08.158Z,1013.83
2018-04-01T03:37:08.144Z,1013.83
2018-04-01T03:38:08.130Z,1013.8
2018-04-01T03:39:08.117Z,1013.82
2018-04-01T03:40:08.104Z,1013.79
2018-04-01T03:41:08.090Z,1013.88
2018-04-01T03:42:08.078Z,1013.89
2018-04-01T03:43:08.065Z,1013.89
2018-04-01T03:44:08.051Z,1013.95
2018-04-01T03:45:08.038Z,1013.92
2018-04-01T03:46:08.024Z,1013.93
2018-04-01T03:47:08.012Z,1013.9
2018-04-01T03:48:07.997Z,1013.91
2018-04-01T03:49:07.986Z,1013.86
2018-04-01T03:50:07.971Z,1013.88
2018-04-01T03:51:07.958Z,1013.91
2018-04-01T03:52:07.944Z,1013.94
2018-04-01T03:53:07.931Z,1013.93
2018-04-01T03:54:07.924Z,1013.94
2018-04-01T03:55:07.904Z,1013.97
2018-04-01T03:56:07.891Z,1014
2018-04-01T03:57:07.878Z,1014.03
2018-04-01T03:58:07.865Z,1014
2018-04-01T03:59:07.856Z,1013.97
2018-04-01T04:00:07.843Z,1014
2018-04-01T04:01:07.825Z,1014.03
2018-04-01T04:02:07.812Z,1014
2018-04-01T04:03:07.798Z,1014.04
2018-04-01T04:04:07.785Z,1014.1
2018-04-01T04:05:07.789Z,1014.2
2018-04-01T04:06:07.762Z,1014.18
2018-04-01T04:07:07.745Z,1014.28
2018-04-01T04:08:07.736Z,1014.28
2018-04-01T04:09:07.718Z,1014.32
2018-04-01T04:10:07.704Z,1014.28
2018-04-01T04:11:07.692Z,1014.27
2018-04-01T04:12:07.678Z,1014.26
2018-04-01T04:13:07.665Z,1014.33
2018-04-01T04:14:07.651Z,1014.35
2018-04-01T04:15:07.638Z,1014.31
2018-04-01T04:16:07.626Z,1014.31
2018-04-01T04:17:07.611Z,1014.34
2018-04-01T04:18:07.598Z,1014.29
2018-04-01T04:19:07.586Z,1014.24
2018-04-01T04:20:07.572Z,1014.27
2018-04-01T04:21:07.557Z,1014.24
2018-04-01T04:22:07.545Z,1014.23
2018-04-01T04:23:07.533Z,1014.27
2018-04-01T04:24:07.519Z,1014.31
2018-04-01T04:25:07.506Z,1014.28
2018-04-01T04:26:07.492Z,1014.34
2018-04-01T04:27:07.480Z,1014.39
2018-04-01T04:28:07.465Z,1014.41
2018-04-01T04:29:07.452Z,1014.46
2018-04-01T04:30:07.439Z,1014.52
2018-04-01T04:31:07.426Z,1014.54
2018-04-01T04:32:07.412Z,1014.63
2018-04-01T04:33:07.398Z,1014.63
2018-04-01T04:34:07.385Z,1014.74
2018-04-01T04:35:07.371Z,1014.7
2018-04-01T04:36:07.358Z,1014.79
2018-04-01T04:37:07.344Z,1014.79
2018-04-01T04:38:07.332Z,1014.79
2018-04-01T04:39:07.317Z,1014.78
2018-04-01T04:40:07.304Z,1014.79
2018-04-01T04:41:07.292Z,1014.83
2018-04-01T04:42:07.280Z,1014.78
2018-04-01T04:43:07.265Z,1014.83
2018-04-01T04:44:07.251Z,1014.86
2018-04-01T04:45:07.237Z,1014.86
2018-04-01T04:46:07.223Z,1014.89
2018-04-01T04:47:07.213Z,1014.9
2018-04-01T04:48:07.196Z,1014.93
2018-04-01T04:49:07.184Z,1014.92
2018-04-01T04:50:07.170Z,1014.88
2018-04-01T04:51:07.156Z,1014.94
2018-04-01T04:52:07.143Z,1014.93
2018-04-01T04:53:07.129Z,1014.99
2018-04-01T04:54:07.115Z,1014.96
2018-04-01T04:55:07.101Z,1015.02
2018-04-01T04:56:07.088Z,1015.02
2018-04-01T04:57:07.075Z,1015.01
2018-04-01T04:58:07.081Z,1015.08
2018-04-01T04:59:07.047Z,1015.01
2018-04-01T05:00:07.034Z,1015.05
2018-04-01T05:01:07.020Z,1015.01
2018-04-01T05:02:07.006Z,1014.99
2018-04-01T05:03:06.993Z,1014.98
2018-04-01T05:04:06.980Z,1014.96
2018-04-01T05:05:06.965Z,1015.01
2018-04-01T05:06:06.952Z,1015.01
2018-04-01T05:07:06.939Z,1014.99
2018-04-01T05:08:06.925Z,1014.93
2018-04-01T05:09:06.912Z,1014.96
2018-04-01T05:10:06.897Z,1014.97
2018-04-01T05:11:06.884Z,1015.02
2018-04-01T05:12:06.871Z,1014.97
2018-04-01T05:13:06.857Z,1015.05
2018-04-01T05:14:06.843Z,1015.06
2018-04-01T05:15:06.834Z,1015.01
2018-04-01T05:16:06.815Z,1014.99
2018-04-01T05:17:06.857Z,1014.95
2018-04-01T05:18:06.789Z,1014.97
2018-04-01T05:19:06.776Z,1014.98
2018-04-01T05:20:06.762Z,1015.02
2018-04-01T05:21:06.750Z,1014.95
2018-04-01T05:22:06.740Z,1014.99
2018-04-01T05:23:06.721Z,1014.98
2018-04-01T05:24:06.708Z,1014.96
2018-04-01T05:25:06.694Z,1014.95
2018-04-01T05:26:06.681Z,1014.98
2018-04-01T05:27:06.667Z,1014.94
2018-04-01T05:28:06.654Z,1014.97
2018-04-01T05:29:06.640Z,1015.04
2018-04-01T05:30:06.626Z,1014.96
2018-04-01T05:31:06.613Z,1015.03
2018-04-01T05:32:06.600Z,1015.07
2018-04-01T05:33:06.591Z,1015.1
2018-04-01T05:34:06.571Z,1015.06
2018-04-01T05:35:06.559Z,1015.16
2018-04-01T05:36:06.545Z,1015.17
2018-04-01T05:37:06.531Z,1015.12
2018-04-01T05:38:06.518Z,1015.13
2018-04-01T05:39:06.504Z,1015.2
2018-04-01T05:40:06.491Z,1015.2
2018-04-01T05:41:06.477Z,1015.21
2018-04-01T05:42:06.463Z,1015.21
2018-04-01T05:43:06.450Z,1015.2
2018-04-01T05:44:06.466Z,1015.13
2018-04-01T05:45:06.422Z,1015.23
2018-04-01T05:46:06.413Z,1015.23
2018-04-01T05:47:06.396Z,1015.24
2018-04-01T05:48:06.383Z,1015.3
2018-04-01T05:49:06.369Z,1015.31
2018-04-01T05:50:06.356Z,1015.36
2018-04-01T05:51:06.342Z,1015.4
2018-04-01T05:52:06.328Z,1015.41
2018-04-01T05:53:06.315Z,1015.4
2018-04-01T05:54:06.301Z,1015.4
2018-04-01T05:55:06.288Z,1015.32
2018-04-01T05:56:06.274Z,1015.37
2018-04-01T05:57:06.261Z,1015.43
2018-04-01T05:58:06.247Z,1015.4
2018-04-01T05:59:06.233Z,1015.38
2018-04-01T06:00:06.220Z,1015.33
2018-04-01T06:01:06.208Z,1015.39
2018-04-01T06:02:06.196Z,1015.38
2018-04-01T06:03:06.181Z,1015.39
2018-04-01T06:04:06.167Z,1015.3
2018-04-01T06:05:06.153Z,1015.37
2018-04-01T06:06:06.141Z,1015.11
2018-04-01T06:07:06.133Z,1015.33
2018-04-01T06:08:06.112Z,1015.31
2018-04-01T06:09:06.100Z,1015.33
2018-04-01T06:10:06.085Z,1015.3
2018-04-01T06:11:06.071Z,1015.38
2018-04-01T06:12:06.058Z,1015.39
2018-04-01T06:13:06.046Z,1015.4
2018-04-01T06:14:06.037Z,1015.37
2018-04-01T06:15:06.019Z,1015.34
2018-04-01T06:16:06.005Z,1015.38
2018-04-01T06:17:05.992Z,1015.41
2018-04-01T06:18:05.981Z,1015.34
2018-04-01T06:19:05.965Z,1015.39
2018-04-01T06:20:05.951Z,1015.34
2018-04-01T06:21:05.937Z,1015.26
2018-04-01T06:22:05.928Z,1015.3
2018-04-01T06:23:05.911Z,1015.28
2018-04-01T06:24:05.898Z,1015.22
2018-04-01T06:25:05.884Z,1015.16
2018-04-01T06:26:05.871Z,1015.2
2018-04-01T06:27:05.861Z,1015.17
2018-04-01T06:28:05.845Z,1015.12
2018-04-01T06:29:05.830Z,1015.09
2018-04-01T06:30:05.820Z,1015.09
2018-04-01T06:31:05.804Z,1015.09
2018-04-01T06:32:05.790Z,1015
2018-04-01T06:33:05.778Z,1015.05
2018-04-01T06:34:05.764Z,1015.01
2018-04-01T06:35:05.751Z,1015.05
2018-04-01T06:36:05.737Z,1015.01
2018-04-01T06:37:05.724Z,1015
2018-04-01T06:38:05.714Z,1014.99
2018-04-01T06:39:05.699Z,1014.93
2018-04-01T06:40:05.732Z,1014.98
2018-04-01T06:41:05.672Z,1015.02
2018-04-01T06:42:05.659Z,1015
2018-04-01T06:43:05.654Z,1015
2018-04-01T06:44:05.633Z,1015.01
2018-04-01T06:45:05.620Z,1015.04
2018-04-01T06:46:05.612Z,1015.01
2018-04-01T06:47:05.594Z,1015.04
2018-04-01T06:48:05.584Z,1014.97
2018-04-01T06:49:05.569Z,1014.92
2018-04-01T06:50:05.556Z,1014.83
2018-04-01T06:51:05.545Z,1014.71
2018-04-01T06:52:05.533Z,1014.7
2018-04-01T06:53:05.517Z,1014.59
2018-04-01T06:54:05.503Z,1014.59
2018-04-01T06:55:05.493Z,1014.7
2018-04-01T06:56:05.481Z,1014.79
2018-04-01T06:57:05.466Z,1014.69
2018-04-01T06:58:05.457Z,1014.63
2018-04-01T06:59:05.441Z,1014.62
2018-04-01T07:00:05.429Z,1014.6
2018-04-01T07:01:05.417Z,1014.61
2018-04-01T07:02:05.404Z,1014.61
2018-04-01T07:03:05.392Z,1014.55
2018-04-01T07:04:05.379Z,1014.47
2018-04-01T07:05:05.366Z,1014.43
2018-04-01T07:06:05.356Z,1014.42
2018-04-01T07:07:05.342Z,1014.4
2018-04-01T07:08:05.330Z,1014.4
2018-04-01T07:09:05.316Z,1014.41
2018-04-01T07:10:05.304Z,1014.38
2018-04-01T07:11:05.293Z,1014.38
2018-04-01T07:12:05.281Z,1014.37
2018-04-01T07:13:05.268Z,1014.34
2018-04-01T07:14:05.256Z,1014.35
2018-04-01T07:15:05.246Z,1014.33
2018-04-01T07:16:05.232Z,1014.31
2018-04-01T07:17:05.220Z,1014.34
2018-04-01T07:18:05.208Z,1014.28
2018-04-01T07:19:05.196Z,1014.32
2018-04-01T07:20:05.183Z,1014.36
2018-04-01T07:21:05.172Z,1014.39
2018-04-01T07:22:05.160Z,1014.31
2018-04-01T07:23:05.148Z,1014.22
2018-04-01T07:24:05.135Z,1014.3
2018-04-01T07:25:05.124Z,1014.26
2018-04-01T07:26:05.112Z,1014.21
2018-04-01T07:27:05.100Z,1014.2
2018-04-01T07:28:05.087Z,1014.16
2018-04-01T07:29:05.076Z,1014.15
2018-04-01T07:30:05.068Z,1014.15
2018-04-01T07:31:05.051Z,1014.08
2018-04-01T07:32:05.041Z,1014.04
2018-04-01T07:33:05.028Z,1014.02
2018-04-01T07:34:05.027Z,1014.06
2018-04-01T07:35:05.005Z,1014.11
2018-04-01T07:36:04.995Z,1014.23
2018-04-01T07:37:04.994Z,1014.1
2018-04-01T07:38:04.981Z,1014.11
2018-04-01T07:39:04.958Z,1014.1
2018-04-01T07:40:04.946Z,1014.08
2018-04-01T07:41:04.935Z,1014.1
2018-04-01T07:42:04.923Z,1014.17
2018-04-01T07:43:04.911Z,1014.09
2018-04-01T07:44:04.900Z,1014.07
2018-04-01T07:45:04.888Z,1014.07
2018-04-01T07:46:04.876Z,1014.07
2018-04-01T07:47:04.865Z,1014.04
2018-04-01T07:48:04.854Z,1014.08
2018-04-01T07:49:04.841Z,1014.02
2018-04-01T07:50:04.830Z,1014
2018-04-01T07:51:04.841Z,1013.96
2018-04-01T07:52:04.807Z,1014.02
2018-04-01T07:53:04.795Z,1013.92
2018-04-01T07:54:04.788Z,1013.93
2018-04-01T07:55:04.773Z,1013.91
2018-04-01T07:56:04.765Z,1013.94
2018-04-01T07:57:04.750Z,1013.95
2018-04-01T07:58:04.739Z,1013.93
2018-04-01T07:59:04.727Z,1013.98
2018-04-01T08:00:04.715Z,1014.08
2018-04-01T08:01:04.705Z,1014.07
2018-04-01T08:02:04.695Z,1014.01
2018-04-01T08:03:04.683Z,1014.08
2018-04-01T08:04:04.674Z,1014.14
2018-04-01T08:05:04.660Z,1014.07
2018-04-01T08:06:04.649Z,1014.05
2018-04-01T08:07:04.637Z,1014.02
2018-04-01T08:08:04.658Z,1014.05
2018-04-01T08:09:04.625Z,1013.95
2018-04-01T08:10:04.615Z,1013.97
2018-04-01T08:11:04.592Z,1013.99
2018-04-01T08:12:04.582Z,1013.9
2018-04-01T08:13:04.572Z,1013.9
2018-04-01T08:14:04.560Z,1013.88
2018-04-01T08:15:04.549Z,1014.02
2018-04-01T08:16:04.540Z,1014.03
2018-04-01T08:17:04.526Z,1014.05
2018-04-01T08:18:04.515Z,1014.03
2018-04-01T08:19:04.505Z,1013.96
2018-04-01T08:20:04.494Z,1013.97
2018-04-01T08:21:04.483Z,1014.02
2018-04-01T08:22:04.471Z,1013.98
2018-04-01T08:23:04.464Z,1014.12
2018-04-01T08:24:04.451Z,1013.94
2018-04-01T08:25:04.440Z,1014.07
2018-04-01T08:26:04.427Z,1014.04
2018-04-01T08:27:04.418Z,1014.1
2018-04-01T08:28:04.406Z,1014.08
2018-04-01T08:29:04.394Z,1014.19
2018-04-01T08:30:04.384Z,1014.24
2018-04-01T08:31:04.372Z,1014.26
2018-04-01T08:32:04.362Z,1014.22
2018-04-01T08:33:04.350Z,1014.24
2018-04-01T08:34:04.339Z,1014.14
2018-04-01T08:35:04.329Z,1014.07
2018-04-01T08:36:04.318Z,1014.19
2018-04-01T08:37:04.309Z,1014.27
2018-04-01T08:38:04.296Z,1014.27
2018-04-01T08:39:04.284Z,1014.28
2018-04-01T08:40:04.277Z,1014.33
2018-04-01T08:41:04.268Z,1014.3
2018-04-01T08:42:04.252Z,1014.33
2018-04-01T08:43:04.241Z,1014.3
2018-04-01T08:44:04.229Z,1014.35
2018-04-01T08:45:04.219Z,1014.42
2018-04-01T08:46:04.208Z,1014.48
2018-04-01T08:47:04.198Z,1014.43
2018-04-01T08:48:04.186Z,1014.37
2018-04-01T08:49:04.176Z,1014.28
2018-04-01T08:50:04.165Z,1014.24
2018-04-01T08:51:04.153Z,1014.15
2018-04-01T08:52:04.142Z,1014.17
2018-04-01T08:53:04.132Z,1014.07
2018-04-01T08:54:04.125Z,1013.94
2018-04-01T08:55:04.110Z,1013.86
2018-04-01T08:56:04.100Z,1013.86
2018-04-01T08:57:04.089Z,1013.89
2018-04-01T08:58:04.078Z,1013.77
2018-04-01T08:59:04.068Z,1013.64
2018-04-01T09:00:04.056Z,1013.68
2018-04-01T09:01:04.048Z,1013.78
2018-04-01T09:02:04.035Z,1013.74
2018-04-01T09:03:04.026Z,1013.87
2018-04-01T09:04:04.022Z,1013.79
2018-04-01T09:05:04.008Z,1013.76
2018-04-01T09:06:03.994Z,1013.66
2018-04-01T09:07:03.984Z,1013.66
2018-04-01T09:08:03.974Z,1013.66
2018-04-01T09:09:03.966Z,1013.61
2018-04-01T09:10:03.954Z,1013.64
2018-04-01T09:11:03.945Z,1013.56
2018-04-01T09:12:03.975Z,1013.6
2018-04-01T09:13:03.924Z,1013.42
2018-04-01T09:14:03.919Z,1013.37
2018-04-01T09:15:03.906Z,1013.4
2018-04-01T09:16:03.894Z,1013.46
2018-04-01T09:17:03.884Z,1013.46
2018-04-01T09:18:03.874Z,1013.55
2018-04-01T09:19:03.864Z,1013.45
2018-04-01T09:20:03.854Z,1013.39
2018-04-01T09:21:03.844Z,1013.35
2018-04-01T09:22:03.835Z,1013.36
2018-04-01T09:23:03.826Z,1013.24
2018-04-01T09:24:03.815Z,1013.3
2018-04-01T09:25:03.806Z,1013.29
2018-04-01T09:26:03.797Z,1013.45
2018-04-01T09:27:03.788Z,1013.6
2018-04-01T09:28:03.777Z,1013.68
2018-04-01T09:29:03.768Z,1013.74
2018-04-01T09:30:03.764Z,1013.81
2018-04-01T09:31:03.749Z,1013.92
2018-04-01T09:32:03.739Z,1013.99
2018-04-01T09:33:03.730Z,1014.12
2018-04-01T09:34:03.722Z,1014.12
2018-04-01T09:35:03.710Z,1014.28
2018-04-01T09:36:03.703Z,1014.41
2018-04-01T09:37:03.729Z,1014.43
2018-04-01T09:38:03.680Z,1014.47
2018-04-01T09:39:03.671Z,1014.44
2018-04-01T09:40:03.662Z,1014.5
2018-04-01T09:41:03.652Z,1014.55
2018-04-01T09:42:03.686Z,1014.73
2018-04-01T09:43:03.631Z,1014.78
2018-04-01T09:44:03.645Z,1014.84
2018-04-01T09:45:03.612Z,1014.88
2018-04-01T09:46:03.624Z,1014.99
2018-04-01T09:47:03.595Z,1014.99
2018-04-01T09:48:03.581Z,1015.11
2018-04-01T09:49:03.579Z,1015.07
2018-04-01T09:50:03.561Z,1015.12
2018-04-01T09:51:03.550Z,1015.14
2018-04-01T09:52:03.542Z,1015.28
2018-04-01T09:53:03.529Z,1015.15
2018-04-01T09:54:03.523Z,1015.17
2018-04-01T09:55:03.509Z,1015.24
2018-04-01T09:56:03.499Z,1015.3
2018-04-01T09:57:03.488Z,1015.34
2018-04-01T09:58:03.478Z,1015.4
2018-04-01T09:59:03.478Z,1015.45
2018-04-01T10:00:03.456Z,1015.52
2018-04-01T10:01:03.446Z,1015.43
2018-04-01T10:02:03.435Z,1015.51
2018-04-01T10:03:03.426Z,1015.54
2018-04-01T10:04:03.414Z,1015.53
2018-04-01T10:05:03.404Z,1015.57
2018-04-01T10:06:03.393Z,1015.56
2018-04-01T10:07:03.383Z,1015.59
2018-04-01T10:08:03.372Z,1015.67
2018-04-01T10:09:03.361Z,1015.68
2018-04-01T10:10:03.352Z,1015.67
2018-04-01T10:11:03.340Z,1015.67
2018-04-01T10:12:03.329Z,1015.68
2018-04-01T10:13:03.319Z,1015.78
2018-04-01T10:14:03.309Z,1015.82
2018-04-01T10:15:03.300Z,1015.77
2018-04-01T10:16:03.288Z,1015.77
2018-04-01T10:17:03.275Z,1015.74
2018-04-01T10:18:03.275Z,1015.86
2018-04-01T10:19:03.254Z,1015.83
2018-04-01T10:20:03.323Z,1015.87
2018-04-01T10:21:03.232Z,1015.89
2018-04-01T10:22:03.227Z,1016.03
2018-04-01T10:23:03.211Z,1016.07
2018-04-01T10:24:03.200Z,1016.04
2018-04-01T10:25:03.190Z,1016.15
2018-04-01T10:26:03.177Z,1016.13
2018-04-01T10:27:03.167Z,1016.11
2018-04-01T10:28:03.157Z,1016.1
2018-04-01T10:29:03.145Z,1016.07
2018-04-01T10:30:03.134Z,1016.08
2018-04-01T10:31:03.123Z,1016.07
2018-04-01T10:32:03.113Z,1016.08
2018-04-01T10:33:03.101Z,1016.14
2018-04-01T10:34:03.089Z,1016.18
2018-04-01T10:35:03.082Z,1016.19
2018-04-01T10:36:03.068Z,1016.25
2018-04-01T10:37:03.056Z,1016.28
2018-04-01T10:38:03.075Z,1016.43
2018-04-01T10:39:03.034Z,1016.46
2018-04-01T10:40:03.027Z,1016.57
2018-04-01T10:41:03.014Z,1016.52
2018-04-01T10:42:03.001Z,1016.6
2018-04-01T10:43:02.991Z,1016.56
2018-04-01T10:44:02.979Z,1016.64
2018-04-01T10:45:02.970Z,1016.61
2018-04-01T10:46:02.958Z,1016.66
2018-04-01T10:47:02.946Z,1016.65
2018-04-01T10:48:02.934Z,1016.73
2018-04-01T10:49:02.923Z,1016.71
2018-04-01T10:50:02.912Z,1016.73
2018-04-01T10:51:02.904Z,1016.77
2018-04-01T10:52:02.888Z,1016.89
2018-04-01T10:53:02.878Z,1016.85
2018-04-01T10:54:02.867Z,1016.96
2018-04-01T10:55:02.869Z,1016.91
2018-04-01T10:56:02.843Z,1016.86
2018-04-01T10:57:02.833Z,1016.9
2018-04-01T10:58:02.823Z,1016.87
2018-04-01T10:59:02.810Z,1016.85
2018-04-01T11:00:02.801Z,1016.9
2018-04-01T11:01:02.792Z,1016.97
2018-04-01T11:02:03.030Z,1016.98
2018-04-01T11:03:02.764Z,1016.9
2018-04-01T11:04:02.753Z,1016.9
2018-04-01T11:05:02.742Z,1016.97
2018-04-01T11:06:02.730Z,1017.01
2018-04-01T11:07:02.723Z,1016.94
2018-04-01T11:08:02.708Z,1017
2018-04-01T11:09:02.696Z,1016.98
2018-04-01T11:10:02.685Z,1016.86
2018-04-01T11:11:02.673Z,1016.89
2018-04-01T11:12:02.661Z,1016.82
2018-04-01T11:13:02.651Z,1016.73
2018-04-01T11:14:02.639Z,1016.76
2018-04-01T11:15:02.628Z,1016.79
2018-04-01T11:16:02.616Z,1016.81
2018-04-01T11:17:02.630Z,1016.78
2018-04-01T11:18:02.594Z,1016.66
2018-04-01T11:19:02.582Z,1016.72
2018-04-01T11:20:02.575Z,1016.67
2018-04-01T11:21:02.559Z,1016.5
2018-04-01T11:22:02.552Z,1016.67
2018-04-01T11:23:02.539Z,1016.66
2018-04-01T11:24:02.530Z,1016.71
2018-04-01T11:25:02.514Z,1016.63
2018-04-01T11:26:02.513Z,1016.54
2018-04-01T11:27:02.495Z,1016.39
2018-04-01T11:28:02.480Z,1016.43
2018-04-01T11:29:02.474Z,1016.41
2018-04-01T11:30:02.459Z,1016.36
2018-04-01T11:31:02.448Z,1016.42
2018-04-01T11:32:02.439Z,1016.25
2018-04-01T11:33:02.425Z,1016.5
2018-04-01T11:34:02.416Z,1016.65
2018-04-01T11:35:02.421Z,1016.61
2018-04-01T11:36:02.394Z,1016.5
2018-04-01T11:37:02.395Z,1016.38
2018-04-01T11:38:02.372Z,1016.41
2018-04-01T11:39:02.360Z,1016.36
2018-04-01T11:40:02.351Z,1016.35
2018-04-01T11:41:02.339Z,1016.39
2018-04-01T11:42:02.329Z,1016.48
2018-04-01T11:43:02.318Z,1016.44
2018-04-01T11:44:02.334Z,1016.46
2018-04-01T11:45:02.296Z,1016.5
2018-04-01T11:46:02.291Z,1016.47
2018-04-01T11:47:02.274Z,1016.5
2018-04-01T11:48:02.266Z,1016.45
2018-04-01T11:49:02.254Z,1016.48
2018-04-01T11:50:02.252Z,1016.54
2018-04-01T11:51:02.262Z,1016.59
2018-04-01T11:52:02.226Z,1016.54
2018-04-01T11:53:02.212Z,1016.55
2018-04-01T11:54:02.200Z,1016.61
2018-04-01T11:55:02.192Z,1016.61
2018-04-01T11:56:02.178Z,1016.54
2018-04-01T11:57:02.168Z,1016.66
2018-04-01T11:58:02.156Z,1016.56
2018-04-01T11:59:02.146Z,1016.54
2018-04-01T12:00:02.137Z,1016.56
2018-04-01T12:01:02.124Z,1016.61
2018-04-01T12:02:02.115Z,1016.61
2018-04-01T12:03:02.110Z,1016.57
2018-04-01T12:04:02.094Z,1016.57
2018-04-01T12:05:02.083Z,1016.49
2018-04-01T12:06:02.083Z,1016.49
2018-04-01T12:07:02.065Z,1016.36
2018-04-01T12:08:02.058Z,1016.41
2018-04-01T12:09:02.068Z,1016.42